Time;durP1;ratioP1;P1;durP2;ratioP2;P2;SDS_P1;SDS_P2;PMS_P1;PMS_P2;Temp;Humidity;BMP_temperature;BMP_pressure;BME280_temperature;BME280_humidity;BME280_pressure;Samples;Min_cycle;Max_cycle;Signal;HPM_P1;HPM_P2
2023/02/17 00:00:19;;;;;;;;;;;;;;;7.66;77.41;101356.77;108611;1258;60591;-86
2023/02/17 00:03:06;;;;;;;;;;;;;;;7.68;77.45;101354.27;108549;1257;125258;-86
2023/02/17 00:05:39;;;;;;;;;;;;;;;7.69;77.41;101350.63;108613;1257;73480;-86
2023/02/17 00:08:18;;;;;;;;;;;;;;;7.71;77.48;101349.50;108652;1273;126742;-86
2023/02/17 00:10:57;;;;;;;;;;;;;;;7.72;77.47;101349.39;108738;1273;71716;-85
2023/02/17 00:13:56;;;;;;;;;;;;;;;7.76;77.48;101347.98;108588;1258;59336;-85
2023/02/17 00:16:24;;;;;;;;;;;;;;;7.78;77.48;101350.04;108594;1258;59193;-85
2023/02/17 00:18:58;;;;;;;;;;;;;;;7.80;77.48;101342.92;108691;1257;73539;-85
2023/02/17 00:21:47;;;;;;;;;;;;;;;7.80;77.50;101343.12;108513;1273;124850;-84
2023/02/17 00:24:22;;;;;;;;;;;;;;;7.80;77.48;101341.55;108518;1265;72576;-84
2023/02/17 00:26:51;;;;;;;;;;;;;;;7.81;77.53;101339.29;108559;1259;125147;-84
2023/02/17 00:29:33;;;;;;;;;;;;;;;7.81;77.64;101338.60;108756;1258;59499;-84
2023/02/17 00:32:01;;;;;;;;;;;;;;;7.80;77.60;101339.11;108671;1257;125223;-85
2023/02/17 00:34:31;;;;;;;;;;;;;;;7.77;77.55;101336.71;108586;1258;67128;-85
2023/02/17 00:36:58;;;;;;;;;;;;;;;7.75;77.50;101333.98;108672;1262;72140;-85
2023/02/17 00:39:25;;;;;;;;;;;;;;;7.73;77.69;101329.69;108673;1257;124665;-85
2023/02/17 00:41:52;;;;;;;;;;;;;;;7.72;77.63;101331.05;108759;1258;60586;-85
2023/02/17 00:44:20;;;;;;;;;;;;;;;7.69;77.70;101325.49;108580;1257;124732;-85
2023/02/17 00:46:47;;;;;;;;;;;;;;;7.67;77.72;101324.69;108600;1257;68509;-85
2023/02/17 00:49:17;;;;;;;;;;;;;;;7.63;77.73;101323.30;108614;1258;71441;-84
2023/02/17 00:51:44;;;;;;;;;;;;;;;7.60;77.77;101319.48;108509;1261;125456;-84
2023/02/17 00:54:11;;;;;;;;;;;;;;;7.58;77.80;101317.48;108476;1257;61809;-84
2023/02/17 00:56:38;;;;;;;;;;;;;;;7.54;77.82;101313.13;108596;1257;125878;-84
2023/02/17 00:59:06;;;;;;;;;;;;;;;7.51;77.88;101307.39;108549;1258;67171;-84
2023/02/17 01:01:33;;;;;;;;;;;;;;;7.47;77.88;101302.48;108676;1259;71083;-84
2023/02/17 01:04:00;;;;;;;;;;;;;;;7.45;77.99;101297.16;108531;1258;125312;-84
2023/02/17 01:06:28;;;;;;;;;;;;;;;7.43;78.05;101293.55;108750;1258;59946;-85
2023/02/17 01:08:55;;;;;;;;;;;;;;;7.39;78.02;101294.63;108619;1257;125275;-85
2023/02/17 01:11:23;;;;;;;;;;;;;;;7.36;78.17;101290.45;108635;1257;67589;-84
2023/02/17 01:13:50;;;;;;;;;;;;;;;7.32;78.14;101288.52;108674;1257;72229;-86
2023/02/17 01:16:18;;;;;;;;;;;;;;;7.27;78.19;101285.63;108553;1257;124145;-85
2023/02/17 01:18:45;;;;;;;;;;;;;;;7.23;78.24;101284.08;108588;1257;59740;-85
2023/02/17 01:21:22;;;;;;;;;;;;;;;7.19;78.38;101280.25;108517;1258;125338;-85
2023/02/17 01:23:53;;;;;;;;;;;;;;;7.18;78.42;101275.31;108697;1257;67676;-85
2023/02/17 01:26:20;;;;;;;;;;;;;;;7.18;78.53;101278.25;108522;1257;124826;-85
2023/02/17 01:28:47;;;;;;;;;;;;;;;7.17;78.56;101282.25;108597;1258;59624;-86
2023/02/17 01:31:14;;;;;;;;;;;;;;;7.19;78.66;101280.23;108662;1257;59854;-85
2023/02/17 01:33:41;;;;;;;;;;;;;;;7.20;78.67;101277.13;108457;1257;125363;-85
2023/02/17 01:36:09;;;;;;;;;;;;;;;7.20;78.61;101274.67;108640;1258;65114;-86
2023/02/17 01:38:37;;;;;;;;;;;;;;;7.20;78.74;101276.08;108499;1257;125574;-85
2023/02/17 01:41:04;;;;;;;;;;;;;;;7.20;78.73;101274.33;108760;1258;59421;-85
2023/02/17 01:43:30;;;;;;;;;;;;;;;7.21;78.75;101270.72;108613;1258;60988;-85
2023/02/17 01:45:58;;;;;;;;;;;;;;;7.23;78.79;101269.23;108687;1259;124718;-85
2023/02/17 01:48:28;;;;;;;;;;;;;;;7.26;78.85;101266.73;108764;1258;66798;-85
2023/02/17 01:50:59;;;;;;;;;;;;;;;7.27;78.82;101266.98;108507;1258;125588;-84
2023/02/17 01:53:28;;;;;;;;;;;;;;;7.29;78.87;101265.52;108638;1264;59322;-85
2023/02/17 01:55:55;;;;;;;;;;;;;;;7.34;78.93;101264.48;108572;1258;59555;-85
2023/02/17 01:58:22;;;;;;;;;;;;;;;7.35;78.83;101263.50;108475;1258;124664;-84
2023/02/17 02:00:49;;;;;;;;;;;;;;;7.35;78.87;101265.77;108612;1264;66568;-85
2023/02/17 02:03:16;;;;;;;;;;;;;;;7.35;78.80;101265.43;108516;1257;126037;-85
2023/02/17 02:05:43;;;;;;;;;;;;;;;7.36;78.88;101264.27;108654;1258;59557;-86
2023/02/17 02:08:10;;;;;;;;;;;;;;;7.38;78.87;101266.30;108576;1258;126782;-85
2023/02/17 02:10:37;;;;;;;;;;;;;;;7.42;78.85;101262.23;108662;1258;75680;-86
2023/02/17 02:13:04;;;;;;;;;;;;;;;7.43;78.82;101261.61;108677;1257;67193;-86
2023/02/17 02:15:33;;;;;;;;;;;;;;;7.45;78.81;101257.31;108474;1257;125189;-85
2023/02/17 02:18:00;;;;;;;;;;;;;;;7.46;78.87;101253.55;108560;1257;59924;-85
2023/02/17 02:20:28;;;;;;;;;;;;;;;7.49;78.89;101246.35;108585;1257;124882;-85
2023/02/17 02:23:13;;;;;;;;;;;;;;;7.52;78.83;101247.87;108609;1260;74664;-84
2023/02/17 02:25:56;;;;;;;;;;;;;;;7.55;78.87;101245.02;108700;1259;65792;-84
2023/02/17 02:28:26;;;;;;;;;;;;;;;7.56;78.76;101241.96;108661;1259;125196;-85
2023/02/17 02:30:59;;;;;;;;;;;;;;;7.58;78.81;101243.43;108698;1265;59523;-85
2023/02/17 02:33:40;;;;;;;;;;;;;;;7.60;78.74;101242.64;108581;1259;125555;-85
2023/02/17 02:36:07;;;;;;;;;;;;;;;7.62;78.80;101239.23;108598;1258;74585;-85
2023/02/17 02:39:06;;;;;;;;;;;;;;;7.65;78.76;101235.34;108582;1257;124922;-85
2023/02/17 02:41:33;;;;;;;;;;;;;;;7.67;78.70;101233.15;108089;1267;72131;-85
2023/02/17 02:44:07;;;;;;;;;;;;;;;7.67;78.65;101230.86;107874;1271;125770;-85
2023/02/17 02:46:34;;;;;;;;;;;;;;;7.66;78.62;101228.23;108012;1266;60209;-86
2023/02/17 02:49:01;;;;;;;;;;;;;;;7.68;78.69;101220.81;107995;1267;73283;-85
2023/02/17 02:51:34;;;;;;;;;;;;;;;7.70;78.68;101217.23;107917;1282;125136;-85
2023/02/17 02:54:14;;;;;;;;;;;;;;;7.72;78.66;101212.41;108143;1266;72645;-85
2023/02/17 02:56:59;;;;;;;;;;;;;;;7.73;78.62;101213.52;108005;1266;125872;-85
2023/02/17 02:59:29;;;;;;;;;;;;;;;7.76;78.63;101205.58;108128;1266;59587;-85
2023/02/17 03:02:14;;;;;;;;;;;;;;;7.76;78.56;101200.20;108105;1267;73481;-86
2023/02/17 03:04:44;;;;;;;;;;;;;;;7.77;78.52;101196.89;108083;1267;67615;-86
2023/02/17 03:07:20;;;;;;;;;;;;;;;7.75;78.44;101189.65;108057;1267;73265;-86
2023/02/17 03:09:48;;;;;;;;;;;;;;;7.69;78.39;101186.80;107937;1267;124536;-86
2023/02/17 03:12:15;;;;;;;;;;;;;;;7.65;78.34;101182.77;108081;1267;59956;-86
2023/02/17 03:14:42;;;;;;;;;;;;;;;7.66;78.58;101176.01;107984;1269;126314;-85
2023/02/17 03:17:09;;;;;;;;;;;;;;;7.67;78.63;101172.23;108188;1259;66005;-85
2023/02/17 03:19:36;;;;;;;;;;;;;;;7.67;78.54;101163.81;108600;1259;71558;-85
2023/02/17 03:22:11;;;;;;;;;;;;;;;7.68;78.59;101164.19;108593;1259;125583;-85
2023/02/17 03:24:38;;;;;;;;;;;;;;;7.66;78.61;101158.55;108589;1259;60069;-85
2023/02/17 03:27:05;;;;;;;;;;;;;;;7.66;78.53;101158.34;108519;1274;125340;-85
2023/02/17 03:29:32;;;;;;;;;;;;;;;7.64;78.60;101154.77;108545;1259;67557;-85
2023/02/17 03:31:59;;;;;;;;;;;;;;;7.62;78.64;101151.89;108618;1258;73980;-85
2023/02/17 03:34:26;;;;;;;;;;;;;;;7.60;78.67;101152.86;108314;1259;125051;-85
2023/02/17 03:36:53;;;;;;;;;;;;;;;7.57;78.62;101155.52;108725;1258;59998;-85
2023/02/17 03:39:20;;;;;;;;;;;;;;;7.52;78.62;101151.47;108572;1258;125782;-84
2023/02/17 03:41:50;;;;;;;;;;;;;;;7.48;78.69;101149.02;108697;1260;68071;-85
2023/02/17 03:44:17;;;;;;;;;;;;;;;7.44;78.80;101149.04;108534;1258;124138;-84
2023/02/17 03:46:44;;;;;;;;;;;;;;;7.43;78.88;101151.09;108609;1257;59457;-84
2023/02/17 03:49:11;;;;;;;;;;;;;;;7.42;78.96;101146.51;108720;1257;59486;-84
2023/02/17 03:51:38;;;;;;;;;;;;;;;7.41;78.97;101150.98;108496;1258;123814;-84
2023/02/17 03:54:05;;;;;;;;;;;;;;;7.38;78.98;101150.86;108610;1259;67106;-85
2023/02/17 03:56:32;;;;;;;;;;;;;;;7.34;79.04;101146.68;108458;1257;125840;-84
2023/02/17 03:58:59;;;;;;;;;;;;;;;7.33;79.16;101146.10;108713;1257;59470;-84
2023/02/17 04:01:26;;;;;;;;;;;;;;;7.31;79.17;101140.06;108628;1259;59372;-84
2023/02/17 04:03:53;;;;;;;;;;;;;;;7.29;79.16;101144.17;108405;1258;125959;-84
2023/02/17 04:06:20;;;;;;;;;;;;;;;7.27;79.30;101144.29;108633;1260;67429;-83
2023/02/17 04:08:47;;;;;;;;;;;;;;;7.28;79.37;101140.96;108575;1258;124504;-84
2023/02/17 04:11:14;;;;;;;;;;;;;;;7.27;79.43;101141.65;108666;1259;60278;-84
2023/02/17 04:13:41;;;;;;;;;;;;;;;7.27;79.43;101143.05;108662;1258;60700;-84
2023/02/17 04:16:08;;;;;;;;;;;;;;;7.27;79.49;101140.77;108504;1258;125500;-83
2023/02/17 04:18:35;;;;;;;;;;;;;;;7.28;79.47;101137.48;108724;1258;65979;-84
2023/02/17 04:21:02;;;;;;;;;;;;;;;7.28;79.47;101135.08;108542;1259;126868;-84
2023/02/17 04:23:29;;;;;;;;;;;;;;;7.30;79.59;101131.64;108616;1258;59770;-84
2023/02/17 04:25:56;;;;;;;;;;;;;;;7.32;79.60;101123.38;108776;1259;60144;-84
2023/02/17 04:28:23;;;;;;;;;;;;;;;7.33;79.60;101116.59;108523;1259;126309;-84
2023/02/17 04:30:50;;;;;;;;;;;;;;;7.32;79.52;101114.65;108747;1259;68079;-84
2023/02/17 04:33:17;;;;;;;;;;;;;;;7.30;79.48;101116.61;108634;1259;125700;-84
2023/02/17 04:35:44;;;;;;;;;;;;;;;7.26;79.48;101125.02;108746;1258;60143;-84
2023/02/17 04:38:11;;;;;;;;;;;;;;;7.25;79.55;101125.30;108521;1257;126835;-83
2023/02/17 04:40:38;;;;;;;;;;;;;;;7.25;79.58;101126.17;108743;1257;75164;-84
2023/02/17 04:43:05;;;;;;;;;;;;;;;7.25;79.60;101130.04;108692;1258;66109;-83
2023/02/17 04:45:32;;;;;;;;;;;;;;;7.26;79.68;101127.63;108643;1273;124728;-84
2023/02/17 04:47:59;;;;;;;;;;;;;;;7.27;79.72;101128.90;108716;1257;59275;-84
2023/02/17 04:50:26;;;;;;;;;;;;;;;7.28;79.67;101126.84;108616;1263;125835;-86
2023/02/17 04:52:53;;;;;;;;;;;;;;;7.28;79.60;101116.41;108806;1257;73872;-84
2023/02/17 04:55:20;;;;;;;;;;;;;;;7.30;79.76;101117.34;108781;1259;66847;-84
2023/02/17 04:57:47;;;;;;;;;;;;;;;7.32;79.77;101115.15;108573;1265;125918;-83
2023/02/17 05:00:14;;;;;;;;;;;;;;;7.33;79.73;101108.05;108657;1259;59414;-85
2023/02/17 05:02:41;;;;;;;;;;;;;;;7.34;79.76;101104.23;108540;1259;126494;-84
2023/02/17 05:05:08;;;;;;;;;;;;;;;7.34;79.68;101103.57;108687;1259;74490;-84
2023/02/17 05:07:35;;;;;;;;;;;;;;;7.37;79.75;101106.99;108516;1258;65569;-85
2023/02/17 05:10:02;;;;;;;;;;;;;;;7.38;79.71;101101.98;108458;1259;124733;-84
2023/02/17 05:12:29;;;;;;;;;;;;;;;7.38;79.68;101104.58;108702;1259;60103;-85
2023/02/17 05:14:55;;;;;;;;;;;;;;;7.37;79.68;101105.79;108545;1257;126977;-84
2023/02/17 05:17:22;;;;;;;;;;;;;;;7.37;79.70;101105.23;108653;1261;74754;-84
2023/02/17 05:19:49;;;;;;;;;;;;;;;7.36;79.71;101102.23;108574;1258;67397;-81
2023/02/17 05:22:16;;;;;;;;;;;;;;;7.36;79.80;101099.64;108561;1257;125836;-80
2023/02/17 05:24:43;;;;;;;;;;;;;;;7.36;79.81;101096.49;108674;1258;60626;-80
2023/02/17 05:27:10;;;;;;;;;;;;;;;7.38;79.78;101093.79;108554;1257;124795;-80
2023/02/17 05:29:37;;;;;;;;;;;;;;;7.38;79.77;101089.60;108746;1257;72844;-80
2023/02/17 05:32:04;;;;;;;;;;;;;;;7.38;79.74;101087.98;108651;1258;125939;-81
2023/02/17 05:34:31;;;;;;;;;;;;;;;7.39;79.81;101086.98;108637;1259;72455;-81
2023/02/17 05:36:58;;;;;;;;;;;;;;;7.43;79.87;101090.29;108502;1258;59851;-81
2023/02/17 05:39:24;;;;;;;;;;;;;;;7.42;79.81;101090.79;108540;1259;124850;-84
2023/02/17 05:41:51;;;;;;;;;;;;;;;7.42;79.83;101093.08;108690;1263;75185;-83
2023/02/17 05:44:18;;;;;;;;;;;;;;;7.44;79.83;101093.88;108673;1258;125327;-85
2023/02/17 05:46:45;;;;;;;;;;;;;;;7.43;79.83;101090.14;108669;1257;71564;-84
2023/02/17 05:49:12;;;;;;;;;;;;;;;7.43;79.86;101092.58;108735;1260;59310;-84
2023/02/17 05:51:39;;;;;;;;;;;;;;;7.43;79.86;101088.71;108683;1259;128178;-83
2023/02/17 05:54:06;;;;;;;;;;;;;;;7.44;79.82;101087.20;108774;1258;74772;-83
2023/02/17 05:56:33;;;;;;;;;;;;;;;7.43;79.82;101087.00;108615;1257;126014;-83
2023/02/17 05:59:00;;;;;;;;;;;;;;;7.44;79.90;101080.20;108751;1259;72134;-85
2023/02/17 06:01:27;;;;;;;;;;;;;;;7.45;79.87;101077.81;108613;1257;59584;-85
2023/02/17 06:03:54;;;;;;;;;;;;;;;7.44;79.94;101076.90;108623;1257;126543;-85
2023/02/17 06:06:21;;;;;;;;;;;;;;;7.45;79.96;101076.11;108565;1259;72833;-86
2023/02/17 06:08:48;;;;;;;;;;;;;;;7.46;79.94;101071.93;108507;1258;125052;-85
2023/02/17 06:11:15;;;;;;;;;;;;;;;7.44;79.85;101070.78;108622;1259;72730;-85
2023/02/17 06:13:42;;;;;;;;;;;;;;;7.45;80.03;101067.50;108533;1259;59486;-85
2023/02/17 06:16:09;;;;;;;;;;;;;;;7.45;80.00;101067.19;108393;1258;125133;-84
2023/02/17 06:18:35;;;;;;;;;;;;;;;7.47;79.99;101060.80;108642;1260;75254;-84
2023/02/17 06:21:02;;;;;;;;;;;;;;;7.49;80.10;101054.96;108614;1273;124841;-84
2023/02/17 06:23:29;;;;;;;;;;;;;;;7.50;80.06;101054.63;108646;1258;73103;-84
2023/02/17 06:25:56;;;;;;;;;;;;;;;7.51;80.05;101053.46;108101;1259;59731;-84
2023/02/17 06:28:23;;;;;;;;;;;;;;;7.52;80.06;101047.38;107473;1265;125369;-84
2023/02/17 06:30:50;;;;;;;;;;;;;;;7.53;80.07;101047.25;107600;1262;74532;-84
2023/02/17 06:33:17;;;;;;;;;;;;;;;7.55;80.25;101046.30;107348;1261;126855;-84
2023/02/17 06:35:48;;;;;;;;;;;;;;;7.55;80.12;101047.19;107729;1263;74683;-83
2023/02/17 06:38:15;;;;;;;;;;;;;;;7.55;80.28;101040.01;107279;1264;125569;-84
2023/02/17 06:40:42;;;;;;;;;;;;;;;7.58;80.20;101046.06;107612;1263;61239;-83
2023/02/17 06:43:09;;;;;;;;;;;;;;;7.58;80.27;101044.53;107517;1263;74975;-84
2023/02/17 06:45:36;;;;;;;;;;;;;;;7.60;80.28;101044.03;107534;1258;126112;-84
2023/02/17 06:48:03;;;;;;;;;;;;;;;7.59;80.21;101040.37;107615;1265;72606;-84
2023/02/17 06:50:30;;;;;;;;;;;;;;;7.58;80.15;101049.73;107574;1262;125217;-84
2023/02/17 06:52:57;;;;;;;;;;;;;;;7.56;80.24;101056.09;107532;1263;61359;-83
2023/02/17 06:55:24;;;;;;;;;;;;;;;7.51;80.14;101051.75;107623;1259;74619;-84
2023/02/17 06:57:50;;;;;;;;;;;;;;;7.48;80.19;101049.65;107634;1266;124420;-84
2023/02/17 07:00:18;;;;;;;;;;;;;;;7.47;80.30;101049.81;107828;1264;73091;-84
2023/02/17 07:02:45;;;;;;;;;;;;;;;7.47;80.26;101050.48;107525;1264;124289;-84
2023/02/17 07:05:12;;;;;;;;;;;;;;;7.47;80.27;101046.98;107719;1261;61374;-84
2023/02/17 07:07:39;;;;;;;;;;;;;;;7.46;80.40;101043.98;107994;1258;75289;-84
2023/02/17 07:10:06;;;;;;;;;;;;;;;7.47;80.44;101035.15;107836;1263;126259;-84
2023/02/17 07:12:33;;;;;;;;;;;;;;;7.50;80.49;101034.05;107507;1259;73345;-83
2023/02/17 07:15:00;;;;;;;;;;;;;;;7.53;80.49;101025.63;107560;1257;124896;-84
2023/02/17 07:17:27;;;;;;;;;;;;;;;7.59;80.63;101021.67;108007;1257;59975;-84
2023/02/17 07:19:54;;;;;;;;;;;;;;;7.65;80.62;101019.79;107854;1263;74706;-84
2023/02/17 07:22:24;;;;;;;;;;;;;;;7.70;80.69;101015.66;107558;1264;126111;-84
2023/02/17 07:24:51;;;;;;;;;;;;;;;7.81;80.77;101017.98;107463;1270;72110;-84
2023/02/17 07:27:18;;;;;;;;;;;;;;;7.87;80.76;101017.23;107474;1263;125183;-83
2023/02/17 07:29:48;;;;;;;;;;;;;;;7.94;80.71;101016.43;107467;1264;61151;-83
2023/02/17 07:32:15;;;;;;;;;;;;;;;8.02;80.73;101016.23;107210;1259;125683;-83
2023/02/17 07:34:42;;;;;;;;;;;;;;;8.07;80.69;101015.23;107110;1264;65775;-83
2023/02/17 07:37:09;;;;;;;;;;;;;;;8.11;80.57;101015.04;107419;1263;73651;-83
2023/02/17 07:39:36;;;;;;;;;;;;;;;8.16;80.45;101012.05;107568;1261;124748;-83
2023/02/17 07:42:05;;;;;;;;;;;;;;;8.16;80.34;101010.50;107659;1258;61166;-84
2023/02/17 07:44:32;;;;;;;;;;;;;;;8.14;80.32;101002.03;107383;1264;124838;-83
2023/02/17 07:46:59;;;;;;;;;;;;;;;8.16;80.23;100991.63;107668;1258;65430;-84
2023/02/17 07:49:32;;;;;;;;;;;;;;;8.19;80.22;100991.17;107220;1261;75378;-84
2023/02/17 07:51:58;;;;;;;;;;;;;;;8.21;80.08;100981.83;107183;1259;125343;-84
2023/02/17 07:54:39;;;;;;;;;;;;;;;8.23;80.10;100974.91;107420;1264;61288;-84
2023/02/17 07:57:06;;;;;;;;;;;;;;;8.25;79.89;100969.41;107318;1265;124815;-84
2023/02/17 07:59:33;;;;;;;;;;;;;;;8.29;80.03;100961.32;107357;1264;65638;-84
2023/02/17 08:01:59;;;;;;;;;;;;;;;8.31;79.86;100956.33;107319;1263;73245;-84
2023/02/17 08:04:26;;;;;;;;;;;;;;;8.31;79.82;100946.04;107553;1262;125168;-84
2023/02/17 08:06:53;;;;;;;;;;;;;;;8.36;79.80;100945.14;108575;1258;59924;-84
2023/02/17 08:15:09;;;;;;;;;;;;;;;8.36;79.44;100926.27;108596;1257;124609;-84
2023/02/17 08:17:36;;;;;;;;;;;;;;;8.36;79.51;100926.45;108639;1264;59438;-84
2023/02/17 08:20:03;;;;;;;;;;;;;;;8.36;79.49;100921.55;108531;1264;59417;-84
2023/02/17 08:22:30;;;;;;;;;;;;;;;8.37;79.54;100916.88;108498;1260;124172;-84
2023/02/17 08:24:57;;;;;;;;;;;;;;;8.41;79.54;100912.10;108738;1257;65122;-84
2023/02/17 08:27:24;;;;;;;;;;;;;;;8.46;79.48;100909.70;108572;1263;124475;-84
2023/02/17 08:29:50;;;;;;;;;;;;;;;8.47;79.48;100903.62;108618;1257;59423;-84
2023/02/17 08:32:18;;;;;;;;;;;;;;;8.47;79.54;100902.23;108538;1263;124245;-83
2023/02/17 08:34:45;;;;;;;;;;;;;;;8.49;79.39;100903.16;108713;1258;74064;-83
2023/02/17 08:37:12;;;;;;;;;;;;;;;8.49;79.39;100904.22;108694;1257;65037;-84
2023/02/17 08:39:39;;;;;;;;;;;;;;;8.52;79.47;100905.39;108626;1257;124762;-84
2023/02/17 08:42:06;;;;;;;;;;;;;;;8.54;79.38;100903.87;108717;1261;61166;-84
2023/02/17 08:44:34;;;;;;;;;;;;;;;8.50;79.17;100903.21;108521;1258;125816;-84
2023/02/17 08:47:01;;;;;;;;;;;;;;;8.50;79.20;100901.62;108665;1273;74498;-84
2023/02/17 08:49:31;;;;;;;;;;;;;;;8.53;79.30;100893.34;108591;1264;67087;-85
2023/02/17 08:51:58;;;;;;;;;;;;;;;8.57;79.27;100892.42;108526;1259;125765;-84
2023/02/17 08:54:25;;;;;;;;;;;;;;;8.56;79.16;100892.58;108698;1257;59339;-84
2023/02/17 08:56:52;;;;;;;;;;;;;;;8.57;79.34;100888.94;108542;1264;126328;-83
2023/02/17 08:59:19;;;;;;;;;;;;;;;8.60;79.22;100886.23;108711;1257;75613;-84
2023/02/17 09:01:46;;;;;;;;;;;;;;;8.59;79.15;100877.61;108574;1258;67736;-84
2023/02/17 09:04:13;;;;;;;;;;;;;;;8.54;79.03;100870.48;108535;1260;125352;-84
2023/02/17 09:06:47;;;;;;;;;;;;;;;8.48;78.95;100868.66;108596;1261;60277;-84
2023/02/17 09:09:15;;;;;;;;;;;;;;;8.45;79.02;100863.84;108452;1260;125969;-84
2023/02/17 09:11:42;;;;;;;;;;;;;;;8.42;79.01;100856.02;108633;1264;74888;-84
2023/02/17 09:14:08;;;;;;;;;;;;;;;8.37;78.93;100859.69;108619;1258;125089;-84
2023/02/17 09:16:38;;;;;;;;;;;;;;;8.35;79.06;100862.08;108366;1258;285642;-84
2023/02/17 09:19:05;;;;;;;;;;;;;;;8.35;79.09;100858.56;108621;1257;59480;-84
2023/02/17 09:21:32;;;;;;;;;;;;;;;8.37;79.16;100853.40;108518;1257;125200;-84
2023/02/17 09:23:59;;;;;;;;;;;;;;;8.39;79.16;100848.22;108832;1257;74984;-83
2023/02/17 09:26:26;;;;;;;;;;;;;;;8.43;79.18;100845.23;108609;1258;126067;-84
2023/02/17 09:28:53;;;;;;;;;;;;;;;8.48;79.28;100841.55;108744;1263;72736;-84
2023/02/17 09:31:21;;;;;;;;;;;;;;;8.51;79.10;100843.75;108515;1261;59070;-84
2023/02/17 09:33:48;;;;;;;;;;;;;;;8.52;79.15;100835.74;108412;1264;125361;-84
2023/02/17 09:36:18;;;;;;;;;;;;;;;8.51;79.01;100835.75;108677;1258;74755;-84
2023/02/17 09:38:45;;;;;;;;;;;;;;;8.51;78.99;100830.48;108466;1274;126034;-84
2023/02/17 09:41:31;;;;;;;;;;;;;;;8.50;79.01;100831.30;108706;1257;73045;-84
2023/02/17 09:43:58;;;;;;;;;;;;;;;8.50;79.09;100825.90;108790;1261;59466;-84
2023/02/17 09:46:32;;;;;;;;;;;;;;;8.55;79.16;100820.32;108682;1257;123939;-84
2023/02/17 09:49:00;;;;;;;;;;;;;;;8.58;79.13;100814.25;108747;1260;73408;-84
2023/02/17 09:51:43;;;;;;;;;;;;;;;8.57;78.96;100811.27;108603;1261;125844;-84
2023/02/17 09:54:26;;;;;;;;;;;;;;;8.55;78.99;100805.45;108660;1260;72954;-83
2023/02/17 09:56:53;;;;;;;;;;;;;;;8.52;78.92;100795.55;108662;1257;124257;-84
2023/02/17 09:59:20;;;;;;;;;;;;;;;8.49;78.93;100787.20;108678;1264;59330;-83
2023/02/17 10:01:47;;;;;;;;;;;;;;;8.48;78.91;100780.17;108506;1259;73649;-83
2023/02/17 10:04:18;;;;;;;;;;;;;;;8.46;78.96;100773.48;108352;1258;124385;-83
2023/02/17 10:06:45;;;;;;;;;;;;;;;8.46;79.05;100769.63;108499;1260;71382;-83
2023/02/17 10:09:12;;;;;;;;;;;;;;;8.49;79.18;100764.11;108418;1257;125222;-83
2023/02/17 10:11:56;;;;;;;;;;;;;;;8.49;79.07;100757.11;108536;1257;59329;-83
2023/02/17 10:14:30;;;;;;;;;;;;;;;8.51;79.15;100750.20;108529;1260;125011;-83
2023/02/17 10:17:09;;;;;;;;;;;;;;;8.56;79.29;100748.09;108549;1257;65551;-83
2023/02/17 10:19:38;;;;;;;;;;;;;;;8.62;79.16;100743.02;108659;1258;73160;-83
2023/02/17 10:22:07;;;;;;;;;;;;;;;8.63;79.13;100737.66;108532;1264;125054;-83
2023/02/17 10:24:34;;;;;;;;;;;;;;;8.66;79.04;100725.31;108657;1257;60681;-85
2023/02/17 10:27:07;;;;;;;;;;;;;;;8.69;79.05;100716.66;108491;1257;126344;-83
2023/02/17 10:29:53;;;;;;;;;;;;;;;8.76;79.16;100708.85;108695;1260;67287;-83
2023/02/17 10:32:21;;;;;;;;;;;;;;;8.81;79.03;100704.09;108639;1257;125895;-83
2023/02/17 10:34:48;;;;;;;;;;;;;;;8.86;79.02;100700.23;108584;1257;59288;-83
2023/02/17 10:37:34;;;;;;;;;;;;;;;8.90;79.00;100691.45;108683;1257;59345;-83
2023/02/17 10:40:02;;;;;;;;;;;;;;;8.96;78.98;100690.56;108530;1264;124890;-84
2023/02/17 10:42:35;;;;;;;;;;;;;;;9.02;78.87;100682.35;108760;1257;67819;-84
2023/02/17 10:45:03;;;;;;;;;;;;;;;9.09;78.91;100669.80;108565;1259;124777;-83
2023/02/17 10:47:30;;;;;;;;;;;;;;;9.14;78.67;100664.34;108630;1257;59426;-83
2023/02/17 10:50:00;;;;;;;;;;;;;;;9.20;78.58;100646.99;108716;1257;59360;-84
2023/02/17 10:52:31;;;;;;;;;;;;;;;9.23;78.50;100640.79;108675;1257;124722;-83
2023/02/17 10:55:01;;;;;;;;;;;;;;;9.28;78.58;100634.27;108700;1264;67582;-83
2023/02/17 10:57:31;;;;;;;;;;;;;;;9.26;78.26;100625.27;108534;1261;125131;-83
2023/02/17 10:59:57;;;;;;;;;;;;;;;9.20;78.17;100621.09;108601;1260;59167;-83
2023/02/17 11:02:33;;;;;;;;;;;;;;;9.10;78.06;100615.71;108483;1264;124803;-84
2023/02/17 11:05:00;;;;;;;;;;;;;;;9.03;78.17;100607.80;108642;1259;73151;-84
2023/02/17 11:07:31;;;;;;;;;;;;;;;9.00;78.32;100600.71;108607;1257;67108;-83
2023/02/17 11:10:02;;;;;;;;;;;;;;;8.99;78.38;100591.09;108556;1261;125091;-83
2023/02/17 11:12:33;;;;;;;;;;;;;;;8.98;78.30;100588.06;108550;1258;59572;-83
2023/02/17 11:15:02;;;;;;;;;;;;;;;8.93;78.29;100589.84;108438;1257;125232;-84
2023/02/17 11:17:30;;;;;;;;;;;;;;;8.85;78.29;100578.75;108602;1261;74742;-84
2023/02/17 11:20:06;;;;;;;;;;;;;;;8.80;78.29;100572.48;108635;1257;65747;-84
2023/02/17 11:22:39;;;;;;;;;;;;;;;8.73;78.30;100561.80;108482;1258;124582;-83
2023/02/17 11:25:18;;;;;;;;;;;;;;;8.69;78.40;100560.45;108509;1257;60266;-83
2023/02/17 11:27:49;;;;;;;;;;;;;;;8.65;78.47;100550.38;108529;1257;125173;-83
2023/02/17 11:30:17;;;;;;;;;;;;;;;8.61;78.42;100541.51;108743;1260;73394;-83
2023/02/17 11:32:44;;;;;;;;;;;;;;;8.59;78.55;100534.25;108584;1257;125975;-83
2023/02/17 11:35:38;;;;;;;;;;;;;;;8.58;78.62;100526.89;108574;1258;72394;-83
2023/02/17 11:38:11;;;;;;;;;;;;;;;8.55;78.65;100513.86;108257;1280;59452;-86
2023/02/17 11:40:38;;;;;;;;;;;;;;;8.53;78.73;100505.74;108096;1266;59320;-84
2023/02/17 11:43:27;;;;;;;;;;;;;;;8.52;78.78;100504.15;108225;1265;74485;-84
2023/02/17 11:45:57;;;;;;;;;;;;;;;8.47;78.69;100500.35;108049;1266;124491;-84
2023/02/17 11:48:38;;;;;;;;;;;;;;;8.41;78.78;100490.88;108273;1265;72769;-84
2023/02/17 11:51:05;;;;;;;;;;;;;;;8.37;78.91;100486.02;108217;1265;124416;-84
2023/02/17 11:53:50;;;;;;;;;;;;;;;8.37;79.01;100473.10;108256;1279;59491;-84
2023/02/17 11:56:18;;;;;;;;;;;;;;;8.33;79.11;100463.71;108016;1265;126646;-83
2023/02/17 11:59:00;;;;;;;;;;;;;;;8.26;79.16;100457.56;108091;1265;67047;-83
2023/02/17 12:01:30;;;;;;;;;;;;;;;8.22;79.34;100452.89;108191;1267;71579;-84
2023/02/17 12:03:57;;;;;;;;;;;;;;;8.17;79.43;100449.77;108219;1265;126006;-82
2023/02/17 12:06:50;;;;;;;;;;;;;;;8.15;79.64;100443.27;108314;1265;59894;-82
2023/02/17 12:09:21;;;;;;;;;;;;;;;8.13;79.73;100437.40;107827;1266;125384;-84
2023/02/17 12:12:23;;;;;;;;;;;;;;;8.11;79.85;100435.26;108234;1265;66886;-84
2023/02/17 12:15:07;;;;;;;;;;;;;;;8.09;79.94;100431.69;107676;1267;125555;-84
2023/02/17 12:17:47;;;;;;;;;;;;;;;8.06;80.01;100425.34;108552;1257;59474;-84
2023/02/17 12:20:23;;;;;;;;;;;;;;;8.05;80.15;100421.09;108692;1257;59512;-83
2023/02/17 12:22:50;;;;;;;;;;;;;;;8.03;80.25;100416.67;108686;1257;75107;-83
2023/02/17 12:25:23;;;;;;;;;;;;;;;8.04;80.35;100409.70;108718;1257;67750;-83
2023/02/17 12:28:03;;;;;;;;;;;;;;;8.03;80.45;100405.83;108623;1257;125260;-83
2023/02/17 12:30:39;;;;;;;;;;;;;;;8.02;80.57;100400.02;108605;1257;59244;-83
2023/02/17 12:33:24;;;;;;;;;;;;;;;8.04;80.67;100395.73;108547;1260;125280;-83
2023/02/17 12:35:56;;;;;;;;;;;;;;;8.02;80.70;100386.77;108637;1257;75166;-83
2023/02/17 12:38:24;;;;;;;;;;;;;;;8.00;80.72;100383.04;108359;1265;125789;-83
2023/02/17 12:41:17;;;;;;;;;;;;;;;7.98;80.75;100372.14;108637;1258;73096;-83
2023/02/17 12:44:03;;;;;;;;;;;;;;;7.97;80.99;100364.42;108522;1259;59560;-83
2023/02/17 12:46:41;;;;;;;;;;;;;;;7.94;80.96;100354.92;108474;1257;125146;-83
2023/02/17 12:49:29;;;;;;;;;;;;;;;7.91;80.99;100352.39;108555;1258;74443;-83
2023/02/17 12:52:09;;;;;;;;;;;;;;;7.92;81.22;100349.44;108482;1258;126523;-83